Timmins, Canada
Current Conditions -  °F | °C
As of 8:35 AM on Monday 24 Nov 2014 (Local Time) from CYTS Reporting Station
Light Rain Light Rain  
Wind Chill: 32°   Ceiling: 500
Heat Index: 39°   Visibility: 3mi
Dew Point: 37°   Wind: 12mph
Humidity: 93%   Direction: 90°E
Pressure: 28.96"   Gusts: NA
Location:  48.48°N, 81.33°W
Report Text: CYTS 241335Z 09010KT 3SM -RA BR BKN005 OVC010 04/03 A2896 RMK SF7NS1 CIG RAG PRESFR SLP816
Loading
Personal Weather Stations






























Interactive Weather Map New forecast layout! Learn more

10-Day Weather Forecast

Advertisements
Track Severe Weather on mobile